sensor_id;sensor_type;location;lat;lon;timestamp;P1;durP1;ratioP1;P2;durP2;ratioP2
76194;SDS011;64964;48.694;21.206;2024-01-30T00:00:37;17.30;;;9.27;;
76194;SDS011;64964;48.694;21.206;2024-01-30T00:03:02;19.07;;;9.67;;
76194;SDS011;64964;48.694;21.206;2024-01-30T00:05:28;18.77;;;8.43;;
76194;SDS011;64964;48.694;21.206;2024-01-30T00:07:53;24.25;;;9.20;;
76194;SDS011;64964;48.694;21.206;2024-01-30T00:10:18;18.23;;;8.30;;
76194;SDS011;64964;48.694;21.206;2024-01-30T00:12:44;21.23;;;8.97;;
76194;SDS011;64964;48.694;21.206;2024-01-30T00:15:09;17.97;;;8.20;;
76194;SDS011;64964;48.694;21.206;2024-01-30T00:17:38;17.02;;;8.02;;
76194;SDS011;64964;48.694;21.206;2024-01-30T00:20:03;16.92;;;8.80;;
76194;SDS011;64964;48.694;21.206;2024-01-30T00:22:31;18.93;;;8.20;;
76194;SDS011;64964;48.694;21.206;2024-01-30T00:24:57;19.55;;;8.90;;
76194;SDS011;64964;48.694;21.206;2024-01-30T00:27:22;16.13;;;7.77;;
76194;SDS011;64964;48.694;21.206;2024-01-30T00:29:47;17.00;;;8.00;;
76194;SDS011;64964;48.694;21.206;2024-01-30T00:32:13;18.70;;;8.40;;
76194;SDS011;64964;48.694;21.206;2024-01-30T00:34:38;23.70;;;8.10;;
76194;SDS011;64964;48.694;21.206;2024-01-30T00:37:04;15.60;;;7.93;;
76194;SDS011;64964;48.694;21.206;2024-01-30T00:39:29;16.90;;;8.00;;
76194;SDS011;64964;48.694;21.206;2024-01-30T00:41:54;16.90;;;8.50;;
76194;SDS011;64964;48.694;21.206;2024-01-30T00:44:20;16.23;;;8.60;;
76194;SDS011;64964;48.694;21.206;2024-01-30T00:46:45;15.53;;;7.97;;
76194;SDS011;64964;48.694;21.206;2024-01-30T00:49:11;15.60;;;8.03;;
76194;SDS011;64964;48.694;21.206;2024-01-30T00:51:36;15.25;;;8.13;;
76194;SDS011;64964;48.694;21.206;2024-01-30T00:54:01;19.67;;;8.60;;
76194;SDS011;64964;48.694;21.206;2024-01-30T00:56:28;17.50;;;8.10;;
76194;SDS011;64964;48.694;21.206;2024-01-30T00:58:53;16.93;;;7.87;;
76194;SDS011;64964;48.694;21.206;2024-01-30T01:01:19;14.80;;;7.40;;
76194;SDS011;64964;48.694;21.206;2024-01-30T01:03:44;15.87;;;8.07;;
76194;SDS011;64964;48.694;21.206;2024-01-30T01:06:09;15.60;;;7.40;;
76194;SDS011;64964;48.694;21.206;2024-01-30T01:08:35;17.73;;;7.93;;
76194;SDS011;64964;48.694;21.206;2024-01-30T01:11:01;16.60;;;7.78;;
76194;SDS011;64964;48.694;21.206;2024-01-30T01:13:26;17.60;;;8.23;;
76194;SDS011;64964;48.694;21.206;2024-01-30T01:15:51;16.53;;;8.00;;
76194;SDS011;64964;48.694;21.206;2024-01-30T01:18:17;16.17;;;8.50;;
76194;SDS011;64964;48.694;21.206;2024-01-30T01:20:42;19.63;;;8.30;;
76194;SDS011;64964;48.694;21.206;2024-01-30T01:23:07;16.52;;;7.90;;
76194;SDS011;64964;48.694;21.206;2024-01-30T01:25:33;15.50;;;8.20;;
76194;SDS011;64964;48.694;21.206;2024-01-30T01:27:58;14.47;;;7.53;;
76194;SDS011;64964;48.694;21.206;2024-01-30T01:30:26;17.65;;;7.38;;
76194;SDS011;64964;48.694;21.206;2024-01-30T01:32:51;14.37;;;7.43;;
76194;SDS011;64964;48.694;21.206;2024-01-30T01:35:23;15.32;;;7.00;;
76194;SDS011;64964;48.694;21.206;2024-01-30T01:37:53;15.88;;;7.28;;
76194;SDS011;64964;48.694;21.206;2024-01-30T01:40:26;16.40;;;6.63;;
76194;SDS011;64964;48.694;21.206;2024-01-30T01:42:52;16.00;;;7.22;;
76194;SDS011;64964;48.694;21.206;2024-01-30T01:45:19;14.68;;;6.97;;
76194;SDS011;64964;48.694;21.206;2024-01-30T01:47:46;14.75;;;6.63;;
76194;SDS011;64964;48.694;21.206;2024-01-30T01:50:15;17.98;;;7.18;;
76194;SDS011;64964;48.694;21.206;2024-01-30T01:52:44;19.20;;;7.53;;
76194;SDS011;64964;48.694;21.206;2024-01-30T01:55:12;14.95;;;7.10;;
76194;SDS011;64964;48.694;21.206;2024-01-30T01:57:38;15.13;;;7.10;;
76194;SDS011;64964;48.694;21.206;2024-01-30T02:00:04;15.53;;;7.90;;
76194;SDS011;64964;48.694;21.206;2024-01-30T02:02:30;14.40;;;7.28;;
76194;SDS011;64964;48.694;21.206;2024-01-30T02:05:00;17.10;;;8.25;;
76194;SDS011;64964;48.694;21.206;2024-01-30T02:07:25;17.85;;;7.50;;
76194;SDS011;64964;48.694;21.206;2024-01-30T02:09:52;16.07;;;7.60;;
76194;SDS011;64964;48.694;21.206;2024-01-30T02:12:18;16.55;;;6.95;;
76194;SDS011;64964;48.694;21.206;2024-01-30T02:14:47;15.30;;;7.17;;
76194;SDS011;64964;48.694;21.206;2024-01-30T02:17:13;15.80;;;6.63;;
76194;SDS011;64964;48.694;21.206;2024-01-30T02:19:39;14.03;;;6.43;;
76194;SDS011;64964;48.694;21.206;2024-01-30T02:22:05;13.13;;;6.05;;
76194;SDS011;64964;48.694;21.206;2024-01-30T02:24:32;14.60;;;6.78;;
76194;SDS011;64964;48.694;21.206;2024-01-30T02:26:57;11.87;;;5.63;;
76194;SDS011;64964;48.694;21.206;2024-01-30T02:29:22;14.00;;;6.37;;
76194;SDS011;64964;48.694;21.206;2024-01-30T02:31:48;12.27;;;5.97;;
76194;SDS011;64964;48.694;21.206;2024-01-30T02:34:13;14.43;;;6.23;;
76194;SDS011;64964;48.694;21.206;2024-01-30T02:36:42;13.20;;;6.05;;
76194;SDS011;64964;48.694;21.206;2024-01-30T02:39:08;13.00;;;5.85;;
76194;SDS011;64964;48.694;21.206;2024-01-30T02:41:34;13.77;;;6.75;;
76194;SDS011;64964;48.694;21.206;2024-01-30T02:44:00;13.20;;;6.40;;
76194;SDS011;64964;48.694;21.206;2024-01-30T02:46:25;13.83;;;6.10;;
76194;SDS011;64964;48.694;21.206;2024-01-30T02:48:51;12.38;;;5.82;;
76194;SDS011;64964;48.694;21.206;2024-01-30T02:51:16;11.17;;;5.27;;
76194;SDS011;64964;48.694;21.206;2024-01-30T02:53:41;12.57;;;5.83;;
76194;SDS011;64964;48.694;21.206;2024-01-30T02:56:07;13.77;;;6.30;;
76194;SDS011;64964;48.694;21.206;2024-01-30T02:58:35;12.65;;;6.03;;
76194;SDS011;64964;48.694;21.206;2024-01-30T03:01:00;13.23;;;5.75;;
76194;SDS011;64964;48.694;21.206;2024-01-30T03:03:26;13.03;;;5.70;;
76194;SDS011;64964;48.694;21.206;2024-01-30T03:05:51;15.57;;;6.07;;
76194;SDS011;64964;48.694;21.206;2024-01-30T03:08:17;12.60;;;6.13;;
76194;SDS011;64964;48.694;21.206;2024-01-30T03:10:42;11.70;;;5.57;;
76194;SDS011;64964;48.694;21.206;2024-01-30T03:13:07;15.80;;;6.53;;
76194;SDS011;64964;48.694;21.206;2024-01-30T03:15:33;13.23;;;6.27;;
76194;SDS011;64964;48.694;21.206;2024-01-30T03:17:58;15.17;;;6.87;;
76194;SDS011;64964;48.694;21.206;2024-01-30T03:20:23;13.53;;;6.50;;
76194;SDS011;64964;48.694;21.206;2024-01-30T03:22:49;20.65;;;8.93;;
76194;SDS011;64964;48.694;21.206;2024-01-30T03:25:14;17.07;;;7.43;;
76194;SDS011;64964;48.694;21.206;2024-01-30T03:27:40;14.23;;;7.03;;
76194;SDS011;64964;48.694;21.206;2024-01-30T03:30:05;16.03;;;7.10;;
76194;SDS011;64964;48.694;21.206;2024-01-30T03:32:31;12.52;;;6.70;;
76194;SDS011;64964;48.694;21.206;2024-01-30T03:34:56;14.73;;;6.47;;
76194;SDS011;64964;48.694;21.206;2024-01-30T03:37:23;13.95;;;6.35;;
76194;SDS011;64964;48.694;21.206;2024-01-30T03:39:48;14.43;;;6.83;;
76194;SDS011;64964;48.694;21.206;2024-01-30T03:42:14;10.95;;;5.95;;
76194;SDS011;64964;48.694;21.206;2024-01-30T03:44:39;14.87;;;6.00;;
76194;SDS011;64964;48.694;21.206;2024-01-30T03:47:04;11.67;;;5.37;;
76194;SDS011;64964;48.694;21.206;2024-01-30T03:49:30;11.90;;;5.93;;
76194;SDS011;64964;48.694;21.206;2024-01-30T03:51:55;12.20;;;5.50;;
76194;SDS011;64964;48.694;21.206;2024-01-30T03:54:20;11.73;;;5.77;;
76194;SDS011;64964;48.694;21.206;2024-01-30T03:56:46;11.77;;;6.40;;
76194;SDS011;64964;48.694;21.206;2024-01-30T03:59:11;13.37;;;6.00;;
76194;SDS011;64964;48.694;21.206;2024-01-30T04:01:37;13.00;;;6.13;;
76194;SDS011;64964;48.694;21.206;2024-01-30T04:04:02;12.90;;;6.73;;
76194;SDS011;64964;48.694;21.206;2024-01-30T04:06:27;13.13;;;6.05;;
76194;SDS011;64964;48.694;21.206;2024-01-30T04:08:53;12.77;;;5.83;;
76194;SDS011;64964;48.694;21.206;2024-01-30T04:11:18;13.47;;;6.13;;
76194;SDS011;64964;48.694;21.206;2024-01-30T04:13:45;11.35;;;6.00;;
76194;SDS011;64964;48.694;21.206;2024-01-30T04:16:19;11.13;;;5.80;;
76194;SDS011;64964;48.694;21.206;2024-01-30T04:18:46;12.60;;;5.97;;
76194;SDS011;64964;48.694;21.206;2024-01-30T04:21:11;11.77;;;5.70;;
76194;SDS011;64964;48.694;21.206;2024-01-30T04:23:36;12.80;;;5.90;;
76194;SDS011;64964;48.694;21.206;2024-01-30T04:26:01;12.73;;;5.63;;
76194;SDS011;64964;48.694;21.206;2024-01-30T04:28:28;15.13;;;5.93;;
76194;SDS011;64964;48.694;21.206;2024-01-30T04:30:53;12.50;;;5.55;;
76194;SDS011;64964;48.694;21.206;2024-01-30T04:33:19;11.37;;;5.57;;
76194;SDS011;64964;48.694;21.206;2024-01-30T04:35:44;12.37;;;5.67;;
76194;SDS011;64964;48.694;21.206;2024-01-30T04:38:10;16.07;;;6.83;;
76194;SDS011;64964;48.694;21.206;2024-01-30T04:40:35;12.50;;;5.93;;
76194;SDS011;64964;48.694;21.206;2024-01-30T04:43:00;10.67;;;5.67;;
76194;SDS011;64964;48.694;21.206;2024-01-30T04:45:26;15.17;;;6.63;;
76194;SDS011;64964;48.694;21.206;2024-01-30T04:47:51;12.63;;;5.72;;
76194;SDS011;64964;48.694;21.206;2024-01-30T04:50:16;13.03;;;6.00;;
76194;SDS011;64964;48.694;21.206;2024-01-30T04:52:42;13.47;;;6.07;;
76194;SDS011;64964;48.694;21.206;2024-01-30T04:55:07;13.27;;;5.60;;
76194;SDS011;64964;48.694;21.206;2024-01-30T04:57:33;11.60;;;6.03;;
76194;SDS011;64964;48.694;21.206;2024-01-30T04:59:58;12.77;;;6.73;;
76194;SDS011;64964;48.694;21.206;2024-01-30T05:02:24;12.07;;;6.00;;
76194;SDS011;64964;48.694;21.206;2024-01-30T05:04:49;11.37;;;6.03;;
76194;SDS011;64964;48.694;21.206;2024-01-30T05:07:15;12.53;;;6.33;;
76194;SDS011;64964;48.694;21.206;2024-01-30T05:09:40;13.57;;;6.53;;
76194;SDS011;64964;48.694;21.206;2024-01-30T05:12:06;13.93;;;6.77;;
76194;SDS011;64964;48.694;21.206;2024-01-30T05:14:32;13.23;;;6.70;;
76194;SDS011;64964;48.694;21.206;2024-01-30T05:16:57;14.33;;;7.17;;
76194;SDS011;64964;48.694;21.206;2024-01-30T05:19:22;13.37;;;6.53;;
76194;SDS011;64964;48.694;21.206;2024-01-30T05:21:48;13.52;;;6.70;;
76194;SDS011;64964;48.694;21.206;2024-01-30T05:24:14;14.27;;;6.87;;
76194;SDS011;64964;48.694;21.206;2024-01-30T05:26:39;12.55;;;6.45;;
76194;SDS011;64964;48.694;21.206;2024-01-30T05:29:05;11.97;;;6.60;;
76194;SDS011;64964;48.694;21.206;2024-01-30T05:31:31;17.83;;;7.85;;
76194;SDS011;64964;48.694;21.206;2024-01-30T05:33:56;15.30;;;7.83;;
76194;SDS011;64964;48.694;21.206;2024-01-30T05:36:22;14.07;;;7.33;;
76194;SDS011;64964;48.694;21.206;2024-01-30T05:38:47;13.40;;;7.10;;
76194;SDS011;64964;48.694;21.206;2024-01-30T05:41:13;14.77;;;7.63;;
76194;SDS011;64964;48.694;21.206;2024-01-30T05:43:38;19.65;;;8.10;;
76194;SDS011;64964;48.694;21.206;2024-01-30T05:46:04;17.03;;;8.40;;
76194;SDS011;64964;48.694;21.206;2024-01-30T05:48:29;17.53;;;8.87;;
76194;SDS011;64964;48.694;21.206;2024-01-30T05:50:54;18.35;;;8.77;;
76194;SDS011;64964;48.694;21.206;2024-01-30T05:53:20;20.30;;;9.27;;
76194;SDS011;64964;48.694;21.206;2024-01-30T05:55:45;17.17;;;9.17;;
76194;SDS011;64964;48.694;21.206;2024-01-30T05:58:11;20.13;;;9.33;;
76194;SDS011;64964;48.694;21.206;2024-01-30T06:00:36;19.67;;;9.27;;
76194;SDS011;64964;48.694;21.206;2024-01-30T06:03:01;20.95;;;10.15;;
76194;SDS011;64964;48.694;21.206;2024-01-30T06:05:27;22.03;;;9.83;;
76194;SDS011;64964;48.694;21.206;2024-01-30T06:07:52;19.03;;;9.30;;
76194;SDS011;64964;48.694;21.206;2024-01-30T06:10:18;17.00;;;8.65;;
76194;SDS011;64964;48.694;21.206;2024-01-30T06:12:44;18.83;;;9.43;;
76194;SDS011;64964;48.694;21.206;2024-01-30T06:15:09;17.70;;;8.63;;
76194;SDS011;64964;48.694;21.206;2024-01-30T06:17:35;17.10;;;8.48;;
76194;SDS011;64964;48.694;21.206;2024-01-30T06:20:00;21.13;;;9.23;;
76194;SDS011;64964;48.694;21.206;2024-01-30T06:22:26;15.97;;;8.47;;
76194;SDS011;64964;48.694;21.206;2024-01-30T06:24:51;18.15;;;8.32;;
76194;SDS011;64964;48.694;21.206;2024-01-30T06:27:16;14.73;;;7.13;;
76194;SDS011;64964;48.694;21.206;2024-01-30T06:29:43;16.03;;;7.60;;
76194;SDS011;64964;48.694;21.206;2024-01-30T06:32:09;16.00;;;8.30;;
76194;SDS011;64964;48.694;21.206;2024-01-30T06:34:34;14.32;;;8.13;;
76194;SDS011;64964;48.694;21.206;2024-01-30T06:36:59;15.47;;;8.23;;
76194;SDS011;64964;48.694;21.206;2024-01-30T06:39:25;16.40;;;8.10;;
76194;SDS011;64964;48.694;21.206;2024-01-30T06:41:52;18.83;;;8.32;;
76194;SDS011;64964;48.694;21.206;2024-01-30T06:44:18;16.73;;;8.25;;
76194;SDS011;64964;48.694;21.206;2024-01-30T06:46:43;17.47;;;8.53;;
76194;SDS011;64964;48.694;21.206;2024-01-30T06:49:09;17.27;;;8.40;;
76194;SDS011;64964;48.694;21.206;2024-01-30T06:51:34;17.53;;;8.03;;
76194;SDS011;64964;48.694;21.206;2024-01-30T06:54:00;19.52;;;8.77;;
76194;SDS011;64964;48.694;21.206;2024-01-30T06:56:25;18.03;;;8.50;;
76194;SDS011;64964;48.694;21.206;2024-01-30T06:58:50;18.93;;;8.93;;
76194;SDS011;64964;48.694;21.206;2024-01-30T07:01:16;14.43;;;7.37;;
76194;SDS011;64964;48.694;21.206;2024-01-30T07:03:42;42.08;;;24.38;;
76194;SDS011;64964;48.694;21.206;2024-01-30T07:06:07;22.47;;;10.87;;
76194;SDS011;64964;48.694;21.206;2024-01-30T07:08:33;24.95;;;12.65;;
76194;SDS011;64964;48.694;21.206;2024-01-30T07:10:58;20.83;;;10.73;;
76194;SDS011;64964;48.694;21.206;2024-01-30T07:13:24;21.80;;;10.83;;
76194;SDS011;64964;48.694;21.206;2024-01-30T07:15:50;23.88;;;12.07;;
76194;SDS011;64964;48.694;21.206;2024-01-30T07:18:15;25.00;;;12.30;;
76194;SDS011;64964;48.694;21.206;2024-01-30T07:20:40;27.43;;;12.37;;
76194;SDS011;64964;48.694;21.206;2024-01-30T07:23:14;21.27;;;10.88;;
76194;SDS011;64964;48.694;21.206;2024-01-30T07:25:41;17.67;;;8.85;;
76194;SDS011;64964;48.694;21.206;2024-01-30T07:28:07;20.63;;;9.70;;
76194;SDS011;64964;48.694;21.206;2024-01-30T07:30:37;19.98;;;9.45;;
76194;SDS011;64964;48.694;21.206;2024-01-30T07:33:03;24.35;;;10.80;;
76194;SDS011;64964;48.694;21.206;2024-01-30T07:35:28;22.13;;;11.13;;
76194;SDS011;64964;48.694;21.206;2024-01-30T07:37:54;18.50;;;10.17;;
76194;SDS011;64964;48.694;21.206;2024-01-30T07:40:19;20.88;;;10.35;;
76194;SDS011;64964;48.694;21.206;2024-01-30T07:42:45;20.30;;;9.87;;
76194;SDS011;64964;48.694;21.206;2024-01-30T07:45:10;20.93;;;10.47;;
76194;SDS011;64964;48.694;21.206;2024-01-30T07:47:35;22.90;;;11.30;;
76194;SDS011;64964;48.694;21.206;2024-01-30T07:50:01;57.60;;;31.33;;
76194;SDS011;64964;48.694;21.206;2024-01-30T07:52:26;85.17;;;45.90;;
76194;SDS011;64964;48.694;21.206;2024-01-30T07:54:52;50.63;;;26.77;;
76194;SDS011;64964;48.694;21.206;2024-01-30T07:57:17;31.93;;;16.93;;
76194;SDS011;64964;48.694;21.206;2024-01-30T07:59:43;27.70;;;13.77;;
76194;SDS011;64964;48.694;21.206;2024-01-30T08:02:09;20.02;;;10.50;;
76194;SDS011;64964;48.694;21.206;2024-01-30T08:04:35;20.17;;;9.87;;
76194;SDS011;64964;48.694;21.206;2024-01-30T08:07:01;20.08;;;9.63;;
76194;SDS011;64964;48.694;21.206;2024-01-30T08:09:26;19.67;;;9.17;;
76194;SDS011;64964;48.694;21.206;2024-01-30T08:11:51;18.17;;;9.13;;
76194;SDS011;64964;48.694;21.206;2024-01-30T08:14:17;24.10;;;11.03;;
76194;SDS011;64964;48.694;21.206;2024-01-30T08:16:42;22.27;;;10.83;;
76194;SDS011;64964;48.694;21.206;2024-01-30T08:19:07;21.37;;;9.93;;
76194;SDS011;64964;48.694;21.206;2024-01-30T08:21:33;18.37;;;9.10;;
76194;SDS011;64964;48.694;21.206;2024-01-30T08:24:02;15.40;;;7.82;;
76194;SDS011;64964;48.694;21.206;2024-01-30T08:26:28;17.45;;;9.07;;
76194;SDS011;64964;48.694;21.206;2024-01-30T08:28:54;20.10;;;10.40;;
76194;SDS011;64964;48.694;21.206;2024-01-30T08:31:19;18.77;;;9.40;;
76194;SDS011;64964;48.694;21.206;2024-01-30T08:33:44;23.30;;;12.33;;
76194;SDS011;64964;48.694;21.206;2024-01-30T08:36:10;23.08;;;12.07;;
76194;SDS011;64964;48.694;21.206;2024-01-30T08:38:35;19.80;;;10.83;;
76194;SDS011;64964;48.694;21.206;2024-01-30T08:41:00;18.40;;;10.83;;
76194;SDS011;64964;48.694;21.206;2024-01-30T08:43:26;23.40;;;12.00;;
76194;SDS011;64964;48.694;21.206;2024-01-30T08:45:51;16.83;;;9.10;;
76194;SDS011;64964;48.694;21.206;2024-01-30T08:48:16;21.00;;;11.27;;
76194;SDS011;64964;48.694;21.206;2024-01-30T08:50:42;16.27;;;10.07;;
76194;SDS011;64964;48.694;21.206;2024-01-30T08:53:08;16.55;;;10.00;;
76194;SDS011;64964;48.694;21.206;2024-01-30T08:55:33;18.60;;;10.63;;
76194;SDS011;64964;48.694;21.206;2024-01-30T08:57:59;15.03;;;9.53;;
76194;SDS011;64964;48.694;21.206;2024-01-30T09:00:24;20.27;;;11.13;;
76194;SDS011;64964;48.694;21.206;2024-01-30T09:02:50;17.17;;;10.07;;
76194;SDS011;64964;48.694;21.206;2024-01-30T09:05:15;16.53;;;10.20;;
76194;SDS011;64964;48.694;21.206;2024-01-30T09:07:40;14.97;;;8.17;;
76194;SDS011;64964;48.694;21.206;2024-01-30T09:10:06;14.07;;;7.72;;
76194;SDS011;64964;48.694;21.206;2024-01-30T09:12:32;21.13;;;11.03;;
76194;SDS011;64964;48.694;21.206;2024-01-30T09:14:57;16.40;;;9.57;;
76194;SDS011;64964;48.694;21.206;2024-01-30T09:17:22;20.27;;;10.07;;
76194;SDS011;64964;48.694;21.206;2024-01-30T09:19:48;22.77;;;11.20;;
76194;SDS011;64964;48.694;21.206;2024-01-30T09:22:13;20.47;;;10.77;;
76194;SDS011;64964;48.694;21.206;2024-01-30T09:24:39;23.50;;;9.70;;
76194;SDS011;64964;48.694;21.206;2024-01-30T09:27:05;20.75;;;11.32;;
76194;SDS011;64964;48.694;21.206;2024-01-30T09:29:31;25.07;;;10.60;;
76194;SDS011;64964;48.694;21.206;2024-01-30T09:31:58;20.67;;;10.18;;
76194;SDS011;64964;48.694;21.206;2024-01-30T09:34:23;17.50;;;9.77;;
76194;SDS011;64964;48.694;21.206;2024-01-30T09:36:48;18.58;;;9.68;;
76194;SDS011;64964;48.694;21.206;2024-01-30T09:39:14;13.67;;;7.13;;
76194;SDS011;64964;48.694;21.206;2024-01-30T09:41:44;16.52;;;7.85;;
76194;SDS011;64964;48.694;21.206;2024-01-30T09:44:13;8.60;;;4.87;;
76194;SDS011;64964;48.694;21.206;2024-01-30T09:46:41;16.00;;;6.72;;
76194;SDS011;64964;48.694;21.206;2024-01-30T09:49:07;14.85;;;8.15;;
76194;SDS011;64964;48.694;21.206;2024-01-30T09:51:34;16.23;;;7.63;;
76194;SDS011;64964;48.694;21.206;2024-01-30T09:54:01;13.80;;;7.27;;
76194;SDS011;64964;48.694;21.206;2024-01-30T09:56:28;9.77;;;4.80;;
76194;SDS011;64964;48.694;21.206;2024-01-30T09:58:54;13.63;;;6.65;;
76194;SDS011;64964;48.694;21.206;2024-01-30T10:01:19;11.80;;;6.93;;
76194;SDS011;64964;48.694;21.206;2024-01-30T10:03:45;14.90;;;7.57;;
76194;SDS011;64964;48.694;21.206;2024-01-30T10:06:10;16.40;;;8.30;;
76194;SDS011;64964;48.694;21.206;2024-01-30T10:08:36;12.57;;;7.25;;
76194;SDS011;64964;48.694;21.206;2024-01-30T10:11:02;14.70;;;7.95;;
76194;SDS011;64964;48.694;21.206;2024-01-30T10:13:28;15.80;;;8.13;;
76194;SDS011;64964;48.694;21.206;2024-01-30T10:15:54;15.48;;;8.27;;
76194;SDS011;64964;48.694;21.206;2024-01-30T10:18:20;16.05;;;7.80;;
76194;SDS011;64964;48.694;21.206;2024-01-30T10:20:47;15.60;;;8.57;;
76194;SDS011;64964;48.694;21.206;2024-01-30T10:23:13;16.88;;;8.48;;
76194;SDS011;64964;48.694;21.206;2024-01-30T10:25:38;17.67;;;9.13;;
76194;SDS011;64964;48.694;21.206;2024-01-30T10:28:04;15.97;;;8.97;;
76194;SDS011;64964;48.694;21.206;2024-01-30T10:30:29;12.25;;;6.63;;
76194;SDS011;64964;48.694;21.206;2024-01-30T10:32:55;16.23;;;8.17;;
76194;SDS011;64964;48.694;21.206;2024-01-30T10:35:20;12.83;;;5.97;;
76194;SDS011;64964;48.694;21.206;2024-01-30T10:37:49;15.17;;;7.37;;
76194;SDS011;64964;48.694;21.206;2024-01-30T10:40:14;12.27;;;7.03;;
76194;SDS011;64964;48.694;21.206;2024-01-30T10:42:44;14.82;;;7.57;;
76194;SDS011;64964;48.694;21.206;2024-01-30T10:45:11;14.88;;;7.40;;
76194;SDS011;64964;48.694;21.206;2024-01-30T10:47:39;11.52;;;5.68;;
76194;SDS011;64964;48.694;21.206;2024-01-30T10:50:07;16.17;;;8.00;;
76194;SDS011;64964;48.694;21.206;2024-01-30T10:52:34;12.77;;;7.03;;
76194;SDS011;64964;48.694;21.206;2024-01-30T10:54:59;13.85;;;7.50;;
76194;SDS011;64964;48.694;21.206;2024-01-30T10:57:26;10.50;;;5.83;;
76194;SDS011;64964;48.694;21.206;2024-01-30T11:00:02;14.85;;;8.02;;
76194;SDS011;64964;48.694;21.206;2024-01-30T11:02:30;17.15;;;8.90;;
76194;SDS011;64964;48.694;21.206;2024-01-30T11:04:58;16.20;;;7.78;;
76194;SDS011;64964;48.694;21.206;2024-01-30T11:07:25;13.52;;;7.75;;
76194;SDS011;64964;48.694;21.206;2024-01-30T11:10:13;15.97;;;7.60;;
76194;SDS011;64964;48.694;21.206;2024-01-30T11:12:40;15.68;;;7.82;;
76194;SDS011;64964;48.694;21.206;2024-01-30T11:20:25;14.77;;;7.82;;
76194;SDS011;64964;48.694;21.206;2024-01-30T11:22:52;13.63;;;7.60;;
76194;SDS011;64964;48.694;21.206;2024-01-30T11:25:19;11.57;;;5.93;;
76194;SDS011;64964;48.694;21.206;2024-01-30T11:27:46;18.20;;;9.40;;
76194;SDS011;64964;48.694;21.206;2024-01-30T11:30:35;10.63;;;5.75;;
76194;SDS011;64964;48.694;21.206;2024-01-30T11:35:26;15.97;;;7.50;;
76194;SDS011;64964;48.694;21.206;2024-01-30T11:37:51;16.60;;;7.68;;
76194;SDS011;64964;48.694;21.206;2024-01-30T11:40:17;16.60;;;7.67;;
76194;SDS011;64964;48.694;21.206;2024-01-30T11:42:44;18.45;;;9.38;;
76194;SDS011;64964;48.694;21.206;2024-01-30T11:45:11;8.23;;;4.55;;
76194;SDS011;64964;48.694;21.206;2024-01-30T11:47:37;16.60;;;8.87;;
76194;SDS011;64964;48.694;21.206;2024-01-30T11:50:03;23.73;;;7.73;;
76194;SDS011;64964;48.694;21.206;2024-01-30T11:52:31;10.43;;;5.33;;
76194;SDS011;64964;48.694;21.206;2024-01-30T11:54:57;15.60;;;8.10;;
76194;SDS011;64964;48.694;21.206;2024-01-30T11:57:23;18.93;;;9.20;;
76194;SDS011;64964;48.694;21.206;2024-01-30T11:59:48;14.63;;;7.17;;
76194;SDS011;64964;48.694;21.206;2024-01-30T12:02:16;17.40;;;8.33;;
76194;SDS011;64964;48.694;21.206;2024-01-30T12:04:42;16.95;;;6.78;;
76194;SDS011;64964;48.694;21.206;2024-01-30T12:07:07;11.00;;;5.70;;
76194;SDS011;64964;48.694;21.206;2024-01-30T12:09:33;10.30;;;5.57;;
76194;SDS011;64964;48.694;21.206;2024-01-30T12:11:58;12.87;;;7.07;;
76194;SDS011;64964;48.694;21.206;2024-01-30T12:14:24;11.80;;;5.97;;
76194;SDS011;64964;48.694;21.206;2024-01-30T12:16:51;14.05;;;7.63;;
76194;SDS011;64964;48.694;21.206;2024-01-30T12:19:26;14.60;;;8.00;;
76194;SDS011;64964;48.694;21.206;2024-01-30T12:21:55;16.52;;;7.75;;
76194;SDS011;64964;48.694;21.206;2024-01-30T12:24:22;13.10;;;7.03;;
76194;SDS011;64964;48.694;21.206;2024-01-30T12:26:48;14.80;;;7.60;;
76194;SDS011;64964;48.694;21.206;2024-01-30T12:29:14;13.03;;;7.10;;
76194;SDS011;64964;48.694;21.206;2024-01-30T12:31:41;9.98;;;5.00;;
76194;SDS011;64964;48.694;21.206;2024-01-30T12:34:07;14.88;;;8.48;;
76194;SDS011;64964;48.694;21.206;2024-01-30T12:36:33;13.80;;;7.17;;
76194;SDS011;64964;48.694;21.206;2024-01-30T12:38:59;11.75;;;5.57;;
76194;SDS011;64964;48.694;21.206;2024-01-30T12:41:26;12.13;;;6.30;;
76194;SDS011;64964;48.694;21.206;2024-01-30T12:43:56;14.43;;;6.85;;
76194;SDS011;64964;48.694;21.206;2024-01-30T12:46:25;7.43;;;3.42;;
76194;SDS011;64964;48.694;21.206;2024-01-30T12:48:53;13.10;;;7.60;;
76194;SDS011;64964;48.694;21.206;2024-01-30T12:51:19;12.60;;;5.70;;
76194;SDS011;64964;48.694;21.206;2024-01-30T12:53:44;17.03;;;8.40;;
76194;SDS011;64964;48.694;21.206;2024-01-30T12:56:11;13.95;;;6.32;;
76194;SDS011;64964;48.694;21.206;2024-01-30T12:58:37;11.60;;;6.37;;
76194;SDS011;64964;48.694;21.206;2024-01-30T13:01:02;9.60;;;5.87;;
76194;SDS011;64964;48.694;21.206;2024-01-30T13:03:28;13.93;;;8.07;;
76194;SDS011;64964;48.694;21.206;2024-01-30T13:05:53;11.67;;;5.33;;
76194;SDS011;64964;48.694;21.206;2024-01-30T13:08:20;12.65;;;6.97;;
76194;SDS011;64964;48.694;21.206;2024-01-30T13:10:45;15.07;;;7.27;;
76194;SDS011;64964;48.694;21.206;2024-01-30T13:13:10;14.40;;;8.40;;
76194;SDS011;64964;48.694;21.206;2024-01-30T13:15:36;16.60;;;8.60;;
76194;SDS011;64964;48.694;21.206;2024-01-30T13:18:01;10.37;;;5.40;;
76194;SDS011;64964;48.694;21.206;2024-01-30T13:20:27;16.27;;;7.00;;
76194;SDS011;64964;48.694;21.206;2024-01-30T13:22:52;17.57;;;9.27;;
76194;SDS011;64964;48.694;21.206;2024-01-30T13:25:18;14.90;;;8.10;;
76194;SDS011;64964;48.694;21.206;2024-01-30T13:27:44;15.85;;;8.73;;
76194;SDS011;64964;48.694;21.206;2024-01-30T13:30:09;16.23;;;8.10;;
76194;SDS011;64964;48.694;21.206;2024-01-30T13:32:35;16.23;;;8.17;;
76194;SDS011;64964;48.694;21.206;2024-01-30T13:35:00;19.15;;;9.15;;
76194;SDS011;64964;48.694;21.206;2024-01-30T13:37:26;15.93;;;8.83;;
76194;SDS011;64964;48.694;21.206;2024-01-30T13:39:51;17.03;;;8.73;;
76194;SDS011;64964;48.694;21.206;2024-01-30T13:42:17;9.90;;;6.03;;
76194;SDS011;64964;48.694;21.206;2024-01-30T13:44:42;18.97;;;8.30;;
76194;SDS011;64964;48.694;21.206;2024-01-30T13:47:09;13.52;;;6.70;;
76194;SDS011;64964;48.694;21.206;2024-01-30T13:49:34;14.77;;;8.20;;
76194;SDS011;64964;48.694;21.206;2024-01-30T13:52:00;17.30;;;6.37;;
76194;SDS011;64964;48.694;21.206;2024-01-30T13:54:25;12.87;;;7.63;;
76194;SDS011;64964;48.694;21.206;2024-01-30T13:56:51;16.13;;;8.27;;
76194;SDS011;64964;48.694;21.206;2024-01-30T13:59:17;12.98;;;7.07;;
76194;SDS011;64964;48.694;21.206;2024-01-30T14:01:48;14.32;;;7.57;;
76194;SDS011;64964;48.694;21.206;2024-01-30T14:04:13;19.00;;;8.93;;
76194;SDS011;64964;48.694;21.206;2024-01-30T14:06:39;17.53;;;8.53;;
76194;SDS011;64964;48.694;21.206;2024-01-30T14:09:05;16.88;;;8.30;;
76194;SDS011;64964;48.694;21.206;2024-01-30T14:11:30;20.90;;;10.73;;
76194;SDS011;64964;48.694;21.206;2024-01-30T14:13:56;18.33;;;8.98;;
76194;SDS011;64964;48.694;21.206;2024-01-30T14:16:21;18.13;;;10.03;;
76194;SDS011;64964;48.694;21.206;2024-01-30T14:18:47;21.17;;;10.13;;
76194;SDS011;64964;48.694;21.206;2024-01-30T14:21:13;18.50;;;9.15;;